createdAt,value
2019-02-24T00:00:00.055Z,44.10
2019-02-24T00:02:28.709Z,44.20
2019-02-24T00:04:57.353Z,44.20
2019-02-24T00:07:26.056Z,44.10
2019-02-24T00:09:54.704Z,44.50
2019-02-24T00:12:23.342Z,44.20
2019-02-24T00:14:52.034Z,44.60
2019-02-24T00:17:20.604Z,44.10
2019-02-24T00:19:49.241Z,44.00
2019-02-24T00:22:17.943Z,44.20
2019-02-24T00:24:46.588Z,44.70
2019-02-24T00:27:15.212Z,44.60
2019-02-24T00:29:43.915Z,45.50
2019-02-24T00:32:12.471Z,44.80
2019-02-24T00:34:41.371Z,44.60
2019-02-24T00:37:10.058Z,44.30
2019-02-24T00:39:38.709Z,44.50
2019-02-24T00:42:07.344Z,43.90
2019-02-24T00:44:36.034Z,43.90
2019-02-24T00:47:04.691Z,44.30
2019-02-24T00:49:33.265Z,44.40
2019-02-24T00:52:01.952Z,44.40
2019-02-24T00:54:30.447Z,44.50
2019-02-24T00:56:59.091Z,44.40
2019-02-24T00:59:27.790Z,44.60
2019-02-24T01:01:56.420Z,46.60
2019-02-24T01:04:25.048Z,45.90
2019-02-24T01:06:53.673Z,46.00
2019-02-24T01:09:22.316Z,46.80
2019-02-24T01:11:50.973Z,46.60
2019-02-24T01:14:19.660Z,47.30
2019-02-24T01:16:48.307Z,45.80
2019-02-24T01:19:16.869Z,45.30
2019-02-24T01:21:45.561Z,45.20
2019-02-24T01:24:14.215Z,46.40
2019-02-24T01:26:42.852Z,46.40
2019-02-24T01:29:11.572Z,48.20
2019-02-24T01:31:40.116Z,48.50
2019-02-24T01:34:08.762Z,48.70
2019-02-24T01:36:37.404Z,49.10
2019-02-24T01:39:06.044Z,48.90
2019-02-24T01:41:34.615Z,50.30
2019-02-24T01:44:03.313Z,50.10
2019-02-24T01:46:31.962Z,50.30
2019-02-24T01:49:00.610Z,50.20
2019-02-24T01:51:29.310Z,51.10
2019-02-24T01:53:57.940Z,51.90
2019-02-24T01:56:26.586Z,51.30
2019-02-24T01:58:55.296Z,50.80
2019-02-24T02:01:23.931Z,50.90
2019-02-24T02:03:52.430Z,51.70
2019-02-24T02:06:21.130Z,52.30
2019-02-24T02:08:49.698Z,51.70
2019-02-24T02:11:18.725Z,51.20
2019-02-24T02:13:47.405Z,52.60
2019-02-24T02:16:16.065Z,52.80
2019-02-24T02:18:44.766Z,53.60
2019-02-24T02:21:13.376Z,54.10
2019-02-24T02:23:42.023Z,53.70
2019-02-24T02:26:10.666Z,53.40
2019-02-24T02:28:43.944Z,53.30
2019-02-24T02:31:09.643Z,53.70
2019-02-24T02:33:38.292Z,53.40
2019-02-24T02:36:06.987Z,53.00
2019-02-24T02:38:35.642Z,52.50
2019-02-24T02:41:04.279Z,52.60
2019-02-24T02:43:32.972Z,52.80
2019-02-24T02:46:01.555Z,52.30
2019-02-24T02:48:30.184Z,52.50
2019-02-24T02:50:58.878Z,52.60
2019-02-24T02:53:27.512Z,52.90
2019-02-24T02:55:56.077Z,53.10
2019-02-24T02:58:24.714Z,53.20
2019-02-24T03:00:53.347Z,52.80
2019-02-24T03:03:21.913Z,52.80
2019-02-24T03:05:58.128Z,53.30
2019-02-24T03:08:28.351Z,53.40
2019-02-24T03:10:56.977Z,54.10
2019-02-24T03:13:25.623Z,53.90
2019-02-24T03:15:54.269Z,53.40
2019-02-24T03:18:22.902Z,53.70
2019-02-24T03:20:51.615Z,53.60
2019-02-24T03:23:20.259Z,53.50
2019-02-24T03:25:48.913Z,53.50
2019-02-24T03:28:17.531Z,53.20
2019-02-24T03:30:46.175Z,53.00
2019-02-24T03:33:14.819Z,52.60
2019-02-24T03:35:43.515Z,52.40
2019-02-24T03:38:12.140Z,52.00
2019-02-24T03:40:40.799Z,52.10
2019-02-24T03:43:09.404Z,53.40
2019-02-24T03:45:38.045Z,52.60
2019-02-24T03:48:06.694Z,52.80
2019-02-24T03:50:35.380Z,52.80
2019-02-24T03:53:04.035Z,52.20
2019-02-24T03:55:32.693Z,51.60
2019-02-24T03:58:01.381Z,51.50
2019-02-24T04:00:29.933Z,51.60
2019-02-24T04:02:58.656Z,51.30
2019-02-24T04:05:27.352Z,51.70
2019-02-24T04:07:55.994Z,51.70
2019-02-24T04:10:24.630Z,51.70
2019-02-24T04:12:53.258Z,51.60
2019-02-24T04:15:21.891Z,51.60
2019-02-24T04:17:50.533Z,52.40
2019-02-24T04:20:19.236Z,53.50
2019-02-24T04:22:47.784Z,54.80
2019-02-24T04:25:16.427Z,54.60
2019-02-24T04:27:45.109Z,55.00
2019-02-24T04:30:13.754Z,54.20
2019-02-24T04:32:42.425Z,54.70
2019-02-24T04:35:11.110Z,54.40
2019-02-24T04:37:39.747Z,54.30
2019-02-24T04:40:08.318Z,54.80
2019-02-24T04:42:37.041Z,56.50
2019-02-24T04:45:05.880Z,56.10
2019-02-24T04:47:34.525Z,55.60
2019-02-24T04:50:03.211Z,55.40
2019-02-24T04:52:31.787Z,55.40
2019-02-24T04:55:02.799Z,55.90
2019-02-24T04:57:31.495Z,56.70
2019-02-24T05:00:00.481Z,57.20
2019-02-24T05:02:29.311Z,57.30
2019-02-24T05:04:58.004Z,57.50
2019-02-24T05:07:26.646Z,57.40
2019-02-24T05:09:55.290Z,57.40
2019-02-24T05:12:24.434Z,56.70
2019-02-24T05:14:53.121Z,57.10
2019-02-24T05:17:21.723Z,57.30
2019-02-24T05:19:50.348Z,57.70
2019-02-24T05:22:18.983Z,57.50
2019-02-24T05:24:47.641Z,57.80
2019-02-24T05:27:16.344Z,58.50
2019-02-24T05:29:46.343Z,58.00
2019-02-24T05:32:15.150Z,58.20
2019-02-24T05:34:43.779Z,58.20
2019-02-24T05:37:12.423Z,58.90
2019-02-24T05:39:41.048Z,58.00
2019-02-24T05:42:09.668Z,58.00
2019-02-24T05:44:38.306Z,57.60
2019-02-24T05:47:06.970Z,57.40
2019-02-24T05:49:35.648Z,57.40
2019-02-24T05:52:04.230Z,57.90
2019-02-24T05:54:32.871Z,57.70
2019-02-24T05:57:01.478Z,57.90
2019-02-24T05:59:30.126Z,58.20
2019-02-24T06:01:58.780Z,58.40
2019-02-24T06:04:27.495Z,59.90
2019-02-24T06:06:56.068Z,60.10
2019-02-24T06:09:24.620Z,59.10
2019-02-24T06:11:53.319Z,58.90
2019-02-24T06:14:22.007Z,59.50
2019-02-24T06:16:50.647Z,59.80
2019-02-24T06:19:19.268Z,59.60
2019-02-24T06:21:47.908Z,59.70
2019-02-24T06:24:16.572Z,60.00
2019-02-24T06:26:45.266Z,60.10
2019-02-24T06:29:13.906Z,60.40
2019-02-24T06:31:42.543Z,60.30
2019-02-24T06:34:11.264Z,59.50
2019-02-24T06:36:39.902Z,58.60
2019-02-24T06:39:08.540Z,59.00
2019-02-24T06:41:37.236Z,59.00
2019-02-24T06:44:05.879Z,58.00
2019-02-24T06:46:34.467Z,57.90
2019-02-24T06:49:03.151Z,55.90
2019-02-24T06:51:31.796Z,51.10
2019-02-24T06:54:00.374Z,47.30
2019-02-24T06:56:29.080Z,44.30
2019-02-24T06:58:57.762Z,40.60
2019-02-24T07:01:26.418Z,38.10
2019-02-24T07:03:55.140Z,35.30
2019-02-24T07:06:23.795Z,33.00
2019-02-24T07:08:52.442Z,29.70
2019-02-24T07:11:21.154Z,26.90
2019-02-24T07:13:49.744Z,26.80
2019-02-24T07:16:18.385Z,26.80
2019-02-24T07:18:47.014Z,27.30
2019-02-24T07:21:15.653Z,26.90
2019-02-24T07:23:44.311Z,26.00
2019-02-24T07:26:13.007Z,24.80
2019-02-24T07:28:41.654Z,23.20
2019-02-24T07:31:10.324Z,22.60
2019-02-24T07:33:39.031Z,23.10
2019-02-24T07:36:07.607Z,23.00
2019-02-24T07:38:36.254Z,22.10
2019-02-24T07:41:04.957Z,21.20
2019-02-24T07:43:33.604Z,20.60
2019-02-24T07:46:02.244Z,20.30
2019-02-24T07:48:30.956Z,20.50
2019-02-24T07:50:59.522Z,20.90
2019-02-24T07:53:28.171Z,20.50
2019-02-24T07:55:56.866Z,20.60
2019-02-24T07:58:25.504Z,20.20
2019-02-24T08:00:54.188Z,20.60
2019-02-24T08:03:22.891Z,20.90
2019-02-24T08:05:51.458Z,18.30
2019-02-24T08:08:20.097Z,17.00
2019-02-24T08:10:48.806Z,16.60
2019-02-24T08:13:17.463Z,15.50
2019-02-24T08:15:46.106Z,15.90
2019-02-24T08:18:14.802Z,15.90
2019-02-24T08:20:43.374Z,15.50
2019-02-24T08:23:12.036Z,15.00
2019-02-24T08:25:40.754Z,14.40
2019-02-24T08:28:09.408Z,13.70
2019-02-24T08:30:41.547Z,14.80
2019-02-24T08:33:08.227Z,15.30
2019-02-24T08:35:36.886Z,15.20
2019-02-24T08:38:05.537Z,15.30
2019-02-24T08:40:34.253Z,14.20
2019-02-24T08:43:02.894Z,14.70
2019-02-24T08:45:31.541Z,14.20
2019-02-24T08:48:00.229Z,14.00
2019-02-24T08:50:28.883Z,13.40
2019-02-24T08:52:57.523Z,13.60
2019-02-24T08:55:26.229Z,13.10
2019-02-24T08:57:54.881Z,13.00
2019-02-24T09:00:23.528Z,12.80
2019-02-24T09:02:52.662Z,13.00
2019-02-24T09:05:21.419Z,13.30
2019-02-24T09:07:50.068Z,13.70
2019-02-24T09:10:18.790Z,13.00
2019-02-24T09:12:47.420Z,12.00
2019-02-24T09:15:17.041Z,11.50
2019-02-24T09:17:45.724Z,11.40
2019-02-24T09:20:14.466Z,13.40
2019-02-24T09:22:43.126Z,15.40
2019-02-24T09:25:11.832Z,17.10
2019-02-24T09:27:40.459Z,19.00
2019-02-24T09:30:11.683Z,19.50
2019-02-24T09:32:40.361Z,19.90
2019-02-24T09:35:09.916Z,20.10
2019-02-24T09:37:38.553Z,21.60
2019-02-24T09:40:11.610Z,23.00
2019-02-24T09:42:40.262Z,24.60
2019-02-24T09:45:10.813Z,25.40
2019-02-24T09:47:46.432Z,25.90
2019-02-24T09:50:10.116Z,26.30
2019-02-24T09:52:38.771Z,26.60
2019-02-24T09:55:08.958Z,26.50
2019-02-24T09:57:37.601Z,26.60
2019-02-24T10:00:14.038Z,26.00
2019-02-24T10:02:42.686Z,25.80
2019-02-24T10:05:11.317Z,25.00
2019-02-24T10:07:40.022Z,24.80
2019-02-24T10:10:10.884Z,25.00
2019-02-24T10:12:39.509Z,24.80
2019-02-24T10:15:10.720Z,23.80
2019-02-24T10:17:39.367Z,23.50
2019-02-24T10:20:10.214Z,23.60
2019-02-24T10:22:38.916Z,23.80
2019-02-24T10:25:08.456Z,23.50
2019-02-24T10:27:37.093Z,21.80
2019-02-24T10:30:08.934Z,19.10
2019-02-24T10:32:37.585Z,19.00
2019-02-24T10:35:06.927Z,17.90
2019-02-24T10:37:35.573Z,16.60
2019-02-24T10:40:15.082Z,16.30
2019-02-24T10:42:43.796Z,17.30
2019-02-24T10:45:15.211Z,16.20
2019-02-24T10:47:43.866Z,16.80
2019-02-24T10:50:14.154Z,17.30
2019-02-24T10:52:42.804Z,17.90
2019-02-24T10:55:11.456Z,19.40
2019-02-24T10:57:40.142Z,20.80
2019-02-24T11:00:19.318Z,22.40
2019-02-24T11:02:48.015Z,23.90
2019-02-24T11:05:16.752Z,24.60
2019-02-24T11:07:45.388Z,25.50
2019-02-24T11:10:14.068Z,25.50
2019-02-24T11:12:42.709Z,24.90
2019-02-24T11:15:12.660Z,25.00
2019-02-24T11:17:41.359Z,24.80
2019-02-24T11:20:15.731Z,23.70
2019-02-24T11:22:44.350Z,23.10
2019-02-24T11:25:13.046Z,23.80
2019-02-24T11:27:41.690Z,24.10
2019-02-24T11:30:14.557Z,24.40
2019-02-24T11:32:43.244Z,25.60
2019-02-24T11:35:12.877Z,26.30
2019-02-24T11:37:41.572Z,26.80
2019-02-24T11:40:12.821Z,26.70
2019-02-24T11:42:41.387Z,26.60
2019-02-24T11:45:10.726Z,25.80
2019-02-24T11:47:39.364Z,25.20
2019-02-24T11:50:12.012Z,24.20
2019-02-24T11:52:40.659Z,23.40
2019-02-24T11:55:10.366Z,22.80
2019-02-24T11:57:38.993Z,22.60
2019-02-24T12:00:17.018Z,22.40
2019-02-24T12:02:45.681Z,23.00
2019-02-24T12:05:14.320Z,23.90
2019-02-24T12:07:43.035Z,25.30
2019-02-24T12:10:12.579Z,25.40
2019-02-24T12:12:41.210Z,25.90
2019-02-24T12:15:14.253Z,26.20
2019-02-24T12:17:42.902Z,26.40
2019-02-24T12:20:13.492Z,26.40
2019-02-24T12:22:42.188Z,26.50
2019-02-24T12:25:11.650Z,26.10
2019-02-24T12:27:40.280Z,26.10
2019-02-24T12:30:12.031Z,26.10
2019-02-24T12:32:40.684Z,26.90
2019-02-24T12:35:09.249Z,26.70
2019-02-24T12:37:37.932Z,27.30
2019-02-24T12:40:09.396Z,27.00
2019-02-24T12:42:38.031Z,26.80
2019-02-24T12:45:08.939Z,27.30
2019-02-24T12:47:37.586Z,27.50
2019-02-24T12:50:14.726Z,27.70
2019-02-24T12:52:43.369Z,27.80
2019-02-24T12:55:12.020Z,28.30
2019-02-24T12:57:41.912Z,27.70
2019-02-24T13:00:22.028Z,27.80
2019-02-24T13:02:50.714Z,27.90
2019-02-24T13:05:19.360Z,28.00
2019-02-24T13:07:47.995Z,27.60
2019-02-24T13:10:20.429Z,27.70
2019-02-24T13:12:49.088Z,27.80
2019-02-24T13:15:17.735Z,28.60
2019-02-24T13:17:46.432Z,29.20
2019-02-24T13:20:15.107Z,29.50
2019-02-24T13:22:43.773Z,29.60
2019-02-24T13:25:13.487Z,29.50
2019-02-24T13:27:43.627Z,30.20
2019-02-24T13:30:13.798Z,30.50
2019-02-24T13:32:42.494Z,30.70
2019-02-24T13:35:11.844Z,30.80
2019-02-24T13:37:40.504Z,31.30
2019-02-24T13:40:11.398Z,31.90
2019-02-24T13:42:40.048Z,32.00
2019-02-24T13:45:17.335Z,32.10
2019-02-24T13:47:45.983Z,31.50
2019-02-24T13:50:15.084Z,31.40
2019-02-24T13:52:43.774Z,31.10
2019-02-24T13:55:14.207Z,30.80
2019-02-24T13:57:42.857Z,30.80
2019-02-24T14:00:19.555Z,30.90
2019-02-24T14:02:48.191Z,31.20
2019-02-24T14:05:16.824Z,31.20
2019-02-24T14:07:45.524Z,31.00
2019-02-24T14:10:14.784Z,31.20
2019-02-24T14:12:43.426Z,31.20
2019-02-24T14:15:14.484Z,31.20
2019-02-24T14:17:43.142Z,31.20
2019-02-24T14:20:16.998Z,30.40
2019-02-24T14:22:45.703Z,30.80
2019-02-24T14:25:14.932Z,30.00
2019-02-24T14:27:43.582Z,30.50
2019-02-24T14:30:17.342Z,30.70
2019-02-24T14:32:45.988Z,30.00
2019-02-24T14:35:22.983Z,30.10
2019-02-24T14:37:51.622Z,30.90
2019-02-24T14:40:20.270Z,30.30
2019-02-24T14:42:48.963Z,30.80
2019-02-24T14:45:20.187Z,30.00
2019-02-24T14:47:48.843Z,30.40
2019-02-24T14:50:17.546Z,30.60
2019-02-24T14:52:46.184Z,30.30
2019-02-24T14:55:15.342Z,31.10
2019-02-24T14:57:44.030Z,31.30
2019-02-24T15:00:15.624Z,30.60
2019-02-24T15:02:46.648Z,30.50
2019-02-24T15:05:47.926Z,30.90
2019-02-24T15:08:05.126Z,30.80
2019-02-24T15:10:33.826Z,31.60
2019-02-24T15:13:02.470Z,31.70
2019-02-24T15:15:36.355Z,31.70
2019-02-24T15:18:05.805Z,32.00
2019-02-24T15:20:34.455Z,32.30
2019-02-24T15:23:03.102Z,32.40
2019-02-24T15:25:31.808Z,32.30
2019-02-24T15:28:00.450Z,32.60
2019-02-24T15:30:36.449Z,32.70
2019-02-24T15:33:05.095Z,33.10
2019-02-24T15:35:33.720Z,32.90
2019-02-24T15:38:02.428Z,32.70
2019-02-24T15:40:31.061Z,32.90
2019-02-24T15:42:59.719Z,33.20
2019-02-24T15:45:28.416Z,33.00
2019-02-24T15:47:57.058Z,35.20
2019-02-24T15:50:25.707Z,32.90
2019-02-24T15:52:54.415Z,32.60
2019-02-24T15:55:23.061Z,32.80
2019-02-24T15:57:51.710Z,32.80
2019-02-24T16:00:22.223Z,32.90
2019-02-24T16:02:50.880Z,32.90
2019-02-24T16:05:19.541Z,33.30
2019-02-24T16:07:48.239Z,33.30
2019-02-24T16:10:19.449Z,34.10
2019-02-24T16:12:48.074Z,34.10
2019-02-24T16:15:23.090Z,33.50
2019-02-24T16:17:51.756Z,33.50
2019-02-24T16:20:26.503Z,34.30
2019-02-24T16:22:55.158Z,36.10
2019-02-24T16:25:23.806Z,33.60
2019-02-24T16:27:52.713Z,33.70
2019-02-24T16:30:21.370Z,34.30
2019-02-24T16:32:49.996Z,34.70
2019-02-24T16:35:19.212Z,34.50
2019-02-24T16:37:47.855Z,35.90
2019-02-24T16:40:18.890Z,35.90
2019-02-24T16:42:47.656Z,35.50
2019-02-24T16:45:16.704Z,36.10
2019-02-24T16:47:45.491Z,36.00
2019-02-24T16:50:19.013Z,36.10
2019-02-24T16:52:49.240Z,36.10
2019-02-24T16:55:18.370Z,36.00
2019-02-24T16:57:48.723Z,36.30
2019-02-24T17:00:23.501Z,36.10
2019-02-24T17:02:52.195Z,36.10
2019-02-24T17:05:20.852Z,36.00
2019-02-24T17:07:49.541Z,36.40
2019-02-24T17:10:26.675Z,38.00
2019-02-24T17:12:55.323Z,38.70
2019-02-24T17:15:23.973Z,39.10
2019-02-24T17:17:52.698Z,39.00
2019-02-24T17:20:23.444Z,38.70
2019-02-24T17:22:52.100Z,38.50
2019-02-24T17:25:20.831Z,38.60
2019-02-24T17:27:49.512Z,39.20
2019-02-24T17:30:18.271Z,39.30
2019-02-24T17:32:46.981Z,39.20
2019-02-24T17:35:15.606Z,39.90
2019-02-24T17:37:44.267Z,40.20
2019-02-24T17:40:19.622Z,40.40
2019-02-24T17:42:48.774Z,40.80
2019-02-24T17:45:19.460Z,41.20
2019-02-24T17:47:49.361Z,41.40
2019-02-24T17:50:18.311Z,42.00
2019-02-24T17:52:47.330Z,42.40
2019-02-24T17:55:18.299Z,42.40
2019-02-24T17:57:46.974Z,42.60
2019-02-24T18:00:31.089Z,42.50
2019-02-24T18:02:59.780Z,43.00
2019-02-24T18:05:28.396Z,42.90
2019-02-24T18:07:57.086Z,43.20
2019-02-24T18:10:25.717Z,42.80
2019-02-24T18:12:55.928Z,42.60
2019-02-24T18:15:24.637Z,42.40
2019-02-24T18:17:53.273Z,42.30
2019-02-24T18:20:22.631Z,42.60
2019-02-24T18:22:51.317Z,43.10
2019-02-24T18:25:19.966Z,43.00
2019-02-24T18:27:48.610Z,42.80
2019-02-24T18:30:20.497Z,42.50
2019-02-24T18:32:49.253Z,42.40
2019-02-24T18:35:17.897Z,42.20
2019-02-24T18:37:47.417Z,42.30
2019-02-24T18:40:16.769Z,42.60
2019-02-24T18:42:45.412Z,42.60
2019-02-24T18:45:14.770Z,42.20
2019-02-24T18:47:43.444Z,42.30
2019-02-24T18:50:14.498Z,42.50
2019-02-24T18:52:43.193Z,43.50
2019-02-24T18:55:12.722Z,44.90
2019-02-24T18:57:41.423Z,45.00
2019-02-24T19:00:19.775Z,44.60
2019-02-24T19:02:48.409Z,45.40
2019-02-24T19:05:17.065Z,44.90
2019-02-24T19:07:45.880Z,45.00
2019-02-24T19:10:21.361Z,45.10
2019-02-24T19:12:50.580Z,45.40
2019-02-24T19:15:20.950Z,46.00
2019-02-24T19:17:49.609Z,46.20
2019-02-24T19:20:23.022Z,46.60
2019-02-24T19:22:51.686Z,47.50
2019-02-24T19:25:20.322Z,47.40
2019-02-24T19:27:49.017Z,48.00
2019-02-24T19:30:19.812Z,48.20
2019-02-24T19:32:48.381Z,48.60
2019-02-24T19:35:18.195Z,49.10
2019-02-24T19:37:46.818Z,48.80
2019-02-24T19:40:17.374Z,48.70
2019-02-24T19:42:46.065Z,49.10
2019-02-24T19:45:19.913Z,49.20
2019-02-24T19:47:48.551Z,49.60
2019-02-24T19:50:18.054Z,49.10
2019-02-24T19:52:46.720Z,49.10
2019-02-24T19:55:18.946Z,49.30
2019-02-24T19:57:47.648Z,49.40
2019-02-24T20:00:26.635Z,50.00
2019-02-24T20:02:55.346Z,50.40
2019-02-24T20:05:23.982Z,50.40
2019-02-24T20:07:52.477Z,49.90
2019-02-24T20:10:23.824Z,50.40
2019-02-24T20:12:52.461Z,51.10
2019-02-24T20:15:21.030Z,51.70
2019-02-24T20:17:49.653Z,51.90
2019-02-24T20:20:18.294Z,51.50
2019-02-24T20:22:46.939Z,51.30
2019-02-24T20:25:20.417Z,51.50
2019-02-24T20:27:49.062Z,52.40
2019-02-24T20:30:26.122Z,52.30
2019-02-24T20:32:54.762Z,51.90
2019-02-24T20:35:23.444Z,52.00
2019-02-24T20:37:52.166Z,52.40
2019-02-24T20:40:20.811Z,51.60
2019-02-24T20:42:49.464Z,51.30
2019-02-24T20:45:19.740Z,51.80
2019-02-24T20:47:48.388Z,52.10
2019-02-24T20:50:19.218Z,51.70
2019-02-24T20:52:47.956Z,52.00
2019-02-24T20:55:17.086Z,52.40
2019-02-24T20:57:45.733Z,52.50
2019-02-24T21:00:26.336Z,52.70
2019-02-24T21:02:54.996Z,52.40
2019-02-24T21:05:23.659Z,52.80
2019-02-24T21:07:52.446Z,53.60
2019-02-24T21:10:21.074Z,53.90
2019-02-24T21:12:49.749Z,53.30
2019-02-24T21:15:18.850Z,53.60
2019-02-24T21:17:47.359Z,53.90
2019-02-24T21:20:18.204Z,54.00
2019-02-24T21:22:46.929Z,54.20
2019-02-24T21:25:17.135Z,54.50
2019-02-24T21:27:45.832Z,55.10
2019-02-24T21:30:17.097Z,55.50
2019-02-24T21:32:45.725Z,55.40
2019-02-24T21:35:14.464Z,55.90
2019-02-24T21:37:43.152Z,55.90
2019-02-24T21:40:16.290Z,55.60
2019-02-24T21:42:45.628Z,55.80
2019-02-24T21:45:16.850Z,56.10
2019-02-24T21:47:45.501Z,56.60
2019-02-24T21:50:15.934Z,56.50
2019-02-24T21:52:44.617Z,56.50
2019-02-24T21:55:13.996Z,56.00
2019-02-24T21:57:42.664Z,56.10
2019-02-24T22:00:19.990Z,56.30
2019-02-24T22:02:48.630Z,56.10
2019-02-24T22:05:17.191Z,55.80
2019-02-24T22:07:45.898Z,55.60
2019-02-24T22:10:15.856Z,56.00
2019-02-24T22:12:44.513Z,56.60
2019-02-24T22:15:26.476Z,56.80
2019-02-24T22:17:55.118Z,56.90
2019-02-24T22:20:23.752Z,56.70
2019-02-24T22:22:52.463Z,56.80
2019-02-24T22:25:21.108Z,56.90
2019-02-24T22:27:49.748Z,56.70
2019-02-24T22:30:20.814Z,57.10
2019-02-24T22:32:49.486Z,57.50
2019-02-24T22:35:18.150Z,57.80
2019-02-24T22:37:46.853Z,57.80
2019-02-24T22:40:16.969Z,57.90
2019-02-24T22:42:46.241Z,57.80
2019-02-24T22:45:19.378Z,57.60
2019-02-24T22:47:47.985Z,57.30
2019-02-24T22:50:16.719Z,57.30
2019-02-24T22:52:45.900Z,57.50
2019-02-24T22:55:18.668Z,57.70
2019-02-24T22:57:47.308Z,57.80
2019-02-24T23:00:32.072Z,58.30
2019-02-24T23:03:00.737Z,58.10
2019-02-24T23:05:29.386Z,57.90
2019-02-24T23:07:58.060Z,58.40
2019-02-24T23:10:26.692Z,58.40
2019-02-24T23:12:55.281Z,58.10
2019-02-24T23:15:23.973Z,58.20
2019-02-24T23:17:52.565Z,58.20
2019-02-24T23:20:21.219Z,58.40
2019-02-24T23:22:49.918Z,58.60
2019-02-24T23:25:18.558Z,58.80
2019-02-24T23:27:47.203Z,59.30
2019-02-24T23:30:15.876Z,59.00
2019-02-24T23:32:44.561Z,59.00
2019-02-24T23:35:13.190Z,58.90
2019-02-24T23:37:41.886Z,58.60
2019-02-24T23:40:10.451Z,58.50
2019-02-24T23:42:39.091Z,58.40
2019-02-24T23:45:11.002Z,58.20
2019-02-24T23:47:39.686Z,57.60
2019-02-24T23:50:12.454Z,57.30
2019-02-24T23:52:41.156Z,56.70
2019-02-24T23:55:10.786Z,56.20
2019-02-24T23:57:39.434Z,56.30
